Time;durP1;ratioP1;P1;durP2;ratioP2;P2;SDS_P1;SDS_P2;PMS_P1;PMS_P2;Temp;Humidity;BMP_temperature;BMP_pressure;BME280_temperature;BME280_humidity;BME280_pressure;Samples;Min_cycle;Max_cycle;Signal;HPM_P1;HPM_P2
2022/01/18 00:00:11;;;;;;;21.60;12.10;;;;;;;;;;10374083;28;20473;-62
2022/01/18 00:05:14;;;;;;;18.33;12.63;;;;;;;;;;10373842;28;20113;-60
2022/01/18 00:10:15;;;;;;;27.80;12.73;;;;;;;;;;10373464;28;20033;-60
2022/01/18 00:20:27;;;;;;;21.30;12.00;;;;;;;;;;10373942;28;20038;-61
2022/01/18 00:25:28;;;;;;;26.92;11.15;;;;;;;;;;10373682;28;20038;-61
2022/01/18 00:35:51;;;;;;;23.67;11.90;;;;;;;;;;10372727;28;20030;-60
2022/01/18 00:40:52;;;;;;;20.90;11.77;;;;;;;;;;10373059;28;20037;-60
2022/01/18 00:45:52;;;;;;;21.87;11.07;;;;;;;;;;10372910;28;20551;-59
2022/01/18 00:50:53;;;;;;;17.60;11.03;;;;;;;;;;10372217;28;20550;-60
2022/01/18 00:56:10;;;;;;;23.85;11.27;;;;;;;;;;10371403;28;20447;-62
2022/01/18 01:01:11;;;;;;;17.92;10.95;;;;;;;;;;10371772;28;20117;-59
2022/01/18 01:06:12;;;;;;;19.63;10.32;;;;;;;;;;10371791;28;20366;-60
2022/01/18 01:11:13;;;;;;;18.00;10.40;;;;;;;;;;10371636;28;20058;-59
2022/01/18 01:47:46;;;;;;;14.50;9.45;;;;;;;;;;10368059;28;20037;-60
2022/01/18 01:52:48;;;;;;;17.98;9.43;;;;;;;;;;10370205;28;20022;-60
2022/01/18 01:57:49;;;;;;;15.93;10.00;;;;;;;;;;10370206;28;20072;-59
2022/01/18 02:02:50;;;;;;;14.73;9.85;;;;;;;;;;10368346;28;20026;-59
2022/01/18 02:07:50;;;;;;;15.77;10.23;;;;;;;;;;10368461;28;20465;-61
2022/01/18 02:12:51;;;;;;;17.80;10.48;;;;;;;;;;10369017;28;20037;-59
2022/01/18 02:23:12;;;;;;;21.15;10.40;;;;;;;;;;10368806;28;20815;-59
2022/01/18 02:28:13;;;;;;;16.90;9.80;;;;;;;;;;10369034;28;20045;-59
2022/01/18 02:33:14;;;;;;;12.98;10.25;;;;;;;;;;10366855;28;20530;-59
2022/01/18 02:38:15;;;;;;;14.98;11.02;;;;;;;;;;10365251;28;20239;-59
2022/01/18 02:48:34;;;;;;;13.02;10.10;;;;;;;;;;10368198;28;20049;-59
2022/01/18 02:54:06;;;;;;;17.23;10.57;;;;;;;;;;10367805;28;20058;-59
2022/01/18 02:59:22;;;;;;;12.95;10.05;;;;;;;;;;10367890;28;20808;-59
2022/01/18 03:04:23;;;;;;;13.93;10.13;;;;;;;;;;10368115;28;20109;-59
2022/01/18 03:09:23;;;;;;;15.30;10.15;;;;;;;;;;10368462;28;20128;-59
2022/01/18 03:14:24;;;;;;;13.13;10.20;;;;;;;;;;10367514;28;20057;-59
2022/01/18 03:19:24;;;;;;;16.42;10.52;;;;;;;;;;10373391;28;20390;-59
2022/01/18 03:29:26;;;;;;;14.30;9.70;;;;;;;;;;10375203;28;20427;-59
2022/01/18 03:34:26;;;;;;;13.93;9.75;;;;;;;;;;10375205;28;20107;-59
2022/01/18 03:39:27;;;;;;;15.13;10.17;;;;;;;;;;10374954;28;20511;-59
2022/01/18 03:44:27;;;;;;;12.80;9.80;;;;;;;;;;10368474;28;20463;-60
2022/01/18 03:49:29;;;;;;;13.47;10.13;;;;;;;;;;10375195;28;20432;-60
2022/01/18 03:54:29;;;;;;;11.63;9.48;;;;;;;;;;10374760;28;20115;-60
2022/01/18 03:59:30;;;;;;;13.20;9.50;;;;;;;;;;10374154;28;20426;-59
2022/01/18 04:04:30;;;;;;;14.00;10.37;;;;;;;;;;10374035;28;20308;-59
2022/01/18 04:09:31;;;;;;;12.20;8.90;;;;;;;;;;10374397;28;20432;-60
2022/01/18 04:14:31;;;;;;;16.20;9.70;;;;;;;;;;10373606;28;20463;-60
2022/01/18 04:29:51;;;;;;;;;;;;;;;;;;10372814;28;20756;-59
2022/01/18 04:34:51;;;;;;;15.13;8.63;;;;;;;;;;10373284;28;19913;-59
2022/01/18 04:39:52;;;;;;;14.50;9.60;;;;;;;;;;10372805;28;20049;-59
2022/01/18 04:50:11;;;;;;;13.55;8.85;;;;;;;;;;10369368;28;20404;-60
2022/01/18 04:55:11;;;;;;;11.67;8.63;;;;;;;;;;10372143;28;20038;-60
2022/01/18 05:00:12;;;;;;;14.38;9.25;;;;;;;;;;10372289;28;20440;-60
2022/01/18 05:05:21;;;;;;;11.95;8.68;;;;;;;;;;10370925;28;20378;-61
2022/01/18 05:10:25;;;;;;;12.43;9.15;;;;;;;;;;10372085;28;20021;-61
2022/01/18 05:25:28;;;;;;;12.13;7.90;;;;;;;;;;10370921;28;20117;-59
2022/01/18 05:30:29;;;;;;;10.50;8.70;;;;;;;;;;10370730;28;20519;-60
2022/01/18 05:35:30;;;;;;;11.10;8.48;;;;;;;;;;10370656;28;20112;-61
2022/01/18 05:40:31;;;;;;;11.50;8.20;;;;;;;;;;10371367;28;20025;-61
2022/01/18 05:45:31;;;;;;;10.82;8.02;;;;;;;;;;10370969;28;20468;-59
2022/01/18 05:50:31;;;;;;;11.27;8.45;;;;;;;;;;10361615;28;20389;-59
2022/01/18 05:55:32;;;;;;;12.03;8.67;;;;;;;;;;10370568;28;20148;-62
2022/01/18 06:00:33;;;;;;;11.80;8.45;;;;;;;;;;10369470;28;20776;-59
2022/01/18 06:10:55;;;;;;;11.75;8.10;;;;;;;;;;10368991;28;20060;-59
2022/01/18 06:15:56;;;;;;;10.57;8.15;;;;;;;;;;10367708;28;20074;-59
2022/01/18 06:20:58;;;;;;;14.63;8.15;;;;;;;;;;10368520;28;20065;-58
2022/01/18 06:26:02;;;;;;;12.52;8.35;;;;;;;;;;10368137;28;20026;-59
2022/01/18 06:31:02;;;;;;;11.13;8.10;;;;;;;;;;10368073;28;20034;-60
2022/01/18 06:36:03;;;;;;;11.57;7.90;;;;;;;;;;10367598;28;20033;-61
2022/01/18 06:41:04;;;;;;;9.45;7.05;;;;;;;;;;10368552;28;20610;-60
2022/01/18 06:46:04;;;;;;;14.38;7.90;;;;;;;;;;10367568;28;20036;-60
2022/01/18 06:51:05;;;;;;;17.75;7.20;;;;;;;;;;10364050;28;20025;-60
2022/01/18 06:56:06;;;;;;;10.07;7.50;;;;;;;;;;10364462;28;20104;-61
2022/01/18 07:01:07;;;;;;;10.82;7.22;;;;;;;;;;10366820;28;20021;-62
2022/01/18 07:06:08;;;;;;;13.43;7.50;;;;;;;;;;10363946;28;20482;-63
2022/01/18 07:11:08;;;;;;;12.07;7.07;;;;;;;;;;10366745;28;20022;-64
2022/01/18 07:16:09;;;;;;;22.77;7.93;;;;;;;;;;10366101;28;20074;-65
2022/01/18 07:21:09;;;;;;;9.80;7.40;;;;;;;;;;10366893;28;20030;-65
2022/01/18 07:26:10;;;;;;;13.05;7.18;;;;;;;;;;10365614;28;20517;-64
2022/01/18 07:31:10;;;;;;;14.85;7.18;;;;;;;;;;10367347;28;20366;-63
2022/01/18 07:36:10;;;;;;;20.05;7.20;;;;;;;;;;10367206;28;20029;-63
2022/01/18 07:41:12;;;;;;;17.00;7.40;;;;;;;;;;10367086;28;20080;-62
2022/01/18 07:46:13;;;;;;;18.10;7.28;;;;;;;;;;10367209;28;20498;-61
2022/01/18 07:51:13;;;;;;;12.70;6.88;;;;;;;;;;10367599;28;20045;-62
2022/01/18 07:56:14;;;;;;;23.20;7.05;;;;;;;;;;10364366;28;20373;-62
2022/01/18 08:01:14;;;;;;;12.25;6.72;;;;;;;;;;10367204;28;20048;-62
2022/01/18 08:06:14;;;;;;;11.90;6.43;;;;;;;;;;10368664;28;20036;-62
2022/01/18 08:11:16;;;;;;;12.60;6.30;;;;;;;;;;10373618;28;21020;-61
2022/01/18 08:16:34;;;;;;;9.20;5.95;;;;;;;;;;10372402;28;20542;-61
2022/01/18 08:21:34;;;;;;;14.48;5.78;;;;;;;;;;10373068;28;20107;-62
2022/01/18 08:26:34;;;;;;;8.93;6.22;;;;;;;;;;10373149;28;20084;-61
2022/01/18 08:31:35;;;;;;;13.25;7.38;;;;;;;;;;10373089;28;20256;-61
2022/01/18 08:36:36;;;;;;;12.63;6.27;;;;;;;;;;10371745;28;20034;-61
2022/01/18 08:41:36;;;;;;;9.50;6.15;;;;;;;;;;10372854;28;20431;-61
2022/01/18 08:46:37;;;;;;;13.10;6.20;;;;;;;;;;10372187;28;20026;-61
2022/01/18 08:51:37;;;;;;;12.02;6.47;;;;;;;;;;10371834;28;20022;-61
2022/01/18 08:56:38;;;;;;;15.73;6.65;;;;;;;;;;10371926;28;20029;-62
2022/01/18 09:01:38;;;;;;;8.97;5.97;;;;;;;;;;10371655;28;20034;-61
2022/01/18 09:06:39;;;;;;;9.17;6.03;;;;;;;;;;10367193;28;21009;-62
2022/01/18 09:11:39;;;;;;;9.88;6.32;;;;;;;;;;10371010;28;20469;-61
2022/01/18 09:16:40;;;;;;;14.67;6.10;;;;;;;;;;10367267;28;20053;-61
2022/01/18 09:21:41;;;;;;;9.38;6.28;;;;;;;;;;10369436;28;20029;-62
2022/01/18 09:26:42;;;;;;;13.98;6.28;;;;;;;;;;10370287;28;20390;-62
2022/01/18 09:31:42;;;;;;;12.82;6.55;;;;;;;;;;10370896;28;20022;-61
2022/01/18 09:36:43;;;;;;;9.43;6.18;;;;;;;;;;10369905;28;20071;-63
2022/01/18 09:41:49;;;;;;;10.32;5.68;;;;;;;;;;10370056;28;20037;-61
2022/01/18 09:46:51;;;;;;;9.82;5.75;;;;;;;;;;10369156;28;20112;-62
2022/01/18 09:51:51;;;;;;;16.38;6.20;;;;;;;;;;10370150;28;20108;-64
2022/01/18 09:56:52;;;;;;;8.85;5.80;;;;;;;;;;10370237;28;20112;-62
2022/01/18 10:01:52;;;;;;;8.63;5.80;;;;;;;;;;10369601;28;20076;-64
2022/01/18 10:06:58;;;;;;;8.98;5.65;;;;;;;;;;10369931;28;20504;-61
2022/01/18 10:12:05;;;;;;;8.70;5.57;;;;;;;;;;10369109;28;20120;-62
2022/01/18 10:17:07;;;;;;;8.52;5.38;;;;;;;;;;10365816;28;20466;-61
2022/01/18 10:22:10;;;;;;;7.93;5.68;;;;;;;;;;10368567;28;20025;-61
2022/01/18 10:27:13;;;;;;;9.82;5.93;;;;;;;;;;10365483;28;20052;-62
2022/01/18 10:37:25;;;;;;;7.25;5.90;;;;;;;;;;10368122;28;20030;-64
2022/01/18 10:42:28;;;;;;;10.32;6.40;;;;;;;;;;10368698;28;20022;-61
2022/01/18 10:47:28;;;;;;;10.27;5.80;;;;;;;;;;10368239;28;20462;-61
2022/01/18 10:52:30;;;;;;;7.05;5.32;;;;;;;;;;10368393;28;20056;-62
2022/01/18 10:57:36;;;;;;;9.33;5.67;;;;;;;;;;10368145;28;20541;-61
2022/01/18 11:02:42;;;;;;;7.47;5.20;;;;;;;;;;10368069;28;20451;-62
2022/01/18 11:07:44;;;;;;;12.02;5.65;;;;;;;;;;10367758;28;20470;-61
2022/01/18 11:12:46;;;;;;;7.22;5.13;;;;;;;;;;10367848;28;20033;-61
2022/01/18 11:17:56;;;;;;;7.80;5.63;;;;;;;;;;10367572;28;20049;-61
2022/01/18 11:22:57;;;;;;;7.53;5.28;;;;;;;;;;10368145;28;20065;-61
2022/01/18 11:27:59;;;;;;;10.90;5.90;;;;;;;;;;10364906;28;20034;-61
2022/01/18 11:33:00;;;;;;;9.13;5.90;;;;;;;;;;10364494;28;20269;-61
2022/01/18 11:38:25;;;;;;;8.82;5.75;;;;;;;;;;10370478;28;20022;-61
2022/01/18 11:43:45;;;;;;;9.30;6.15;;;;;;;;;;10374546;28;20030;-61
2022/01/18 11:48:47;;;;;;;7.45;5.65;;;;;;;;;;10374887;28;20507;-61
2022/01/18 11:59:19;;;;;;;9.63;5.95;;;;;;;;;;10374735;28;20117;-61
2022/01/18 12:04:45;;;;;;;8.50;5.25;;;;;;;;;;10374581;28;20033;-61
2022/01/18 12:09:48;;;;;;;8.57;5.43;;;;;;;;;;10375118;28;20066;-61
2022/01/18 12:14:48;;;;;;;6.63;4.95;;;;;;;;;;10373866;28;20137;-61
2022/01/18 12:19:48;;;;;;;10.93;5.57;;;;;;;;;;10371525;28;20073;-61
2022/01/18 12:25:28;;;;;;;6.13;4.88;;;;;;;;;;10373042;28;20475;-61
2022/01/18 12:30:54;;;;;;;9.55;5.22;;;;;;;;;;10373747;28;20105;-61
2022/01/18 12:36:28;;;;;;;9.82;5.32;;;;;;;;;;10369550;28;20035;-62
2022/01/18 12:41:40;;;;;;;7.25;5.10;;;;;;;;;;10369449;28;20038;-62
2022/01/18 12:46:52;;;;;;;8.23;5.07;;;;;;;;;;10372623;28;20150;-61
2022/01/18 12:51:59;;;;;;;8.20;5.32;;;;;;;;;;10371304;28;20105;-61
2022/01/18 12:57:22;;;;;;;8.85;5.05;;;;;;;;;;10372538;28;20028;-61
2022/01/18 13:02:22;;;;;;;7.88;5.22;;;;;;;;;;10369730;28;20034;-62
2022/01/18 13:07:23;;;;;;;6.73;4.47;;;;;;;;;;10371548;28;20038;-61
2022/01/18 13:12:29;;;;;;;6.60;5.13;;;;;;;;;;10370545;28;20590;-62
2022/01/18 13:23:02;;;;;;;6.97;4.90;;;;;;;;;;10371581;28;20481;-61
2022/01/18 13:28:03;;;;;;;6.72;4.60;;;;;;;;;;10370753;28;20030;-62
2022/01/18 13:33:06;;;;;;;6.60;4.97;;;;;;;;;;10370922;28;20076;-61
2022/01/18 13:38:08;;;;;;;7.80;4.60;;;;;;;;;;10367368;28;20053;-61
2022/01/18 13:43:12;;;;;;;7.80;4.88;;;;;;;;;;10370335;28;20061;-64
2022/01/18 13:48:13;;;;;;;6.18;4.75;;;;;;;;;;10366464;28;20053;-63
2022/01/18 13:53:28;;;;;;;9.02;4.47;;;;;;;;;;10369939;28;20033;-62
2022/01/18 13:58:28;;;;;;;6.35;4.50;;;;;;;;;;10369390;28;20080;-65
2022/01/18 14:03:40;;;;;;;7.40;4.57;;;;;;;;;;10368817;28;20532;-61
2022/01/18 14:08:48;;;;;;;6.03;4.43;;;;;;;;;;10369143;28;20025;-60
2022/01/18 14:13:50;;;;;;;5.90;3.93;;;;;;;;;;10369244;28;20065;-61
2022/01/18 14:19:03;;;;;;;7.85;5.00;;;;;;;;;;10368967;28;20426;-63
2022/01/18 14:24:34;;;;;;;4.60;4.15;;;;;;;;;;10368864;28;20406;-62
2022/01/18 14:29:40;;;;;;;5.90;4.32;;;;;;;;;;10369228;28;20034;-63
2022/01/18 14:34:49;;;;;;;6.05;4.20;;;;;;;;;;10368576;28;20030;-60
2022/01/18 14:40:02;;;;;;;5.93;4.03;;;;;;;;;;10369210;28;20022;-61
2022/01/18 14:50:18;;;;;;;5.13;4.00;;;;;;;;;;10362691;28;20493;-61
2022/01/18 14:55:20;;;;;;;7.32;4.22;;;;;;;;;;10368574;28;20492;-61
2022/01/18 15:00:22;;;;;;;7.35;4.88;;;;;;;;;;10367499;28;20431;-61
2022/01/18 15:05:23;;;;;;;6.65;4.30;;;;;;;;;;10367717;28;20064;-62
2022/01/18 15:10:24;;;;;;;6.30;4.43;;;;;;;;;;10367872;28;20037;-60
2022/01/18 15:15:29;;;;;;;5.68;3.95;;;;;;;;;;10372738;28;20072;-60
2022/01/18 15:20:30;;;;;;;6.00;4.53;;;;;;;;;;10376957;28;20033;-60
2022/01/18 15:25:30;;;;;;;5.32;3.97;;;;;;;;;;10375662;28;20033;-60
2022/01/18 15:30:32;;;;;;;5.13;4.13;;;;;;;;;;10375641;28;20040;-60
2022/01/18 15:35:33;;;;;;;6.30;4.15;;;;;;;;;;10375980;28;20025;-63
2022/01/18 15:40:35;;;;;;;5.37;4.00;;;;;;;;;;10375774;28;20021;-63
2022/01/18 15:45:35;;;;;;;7.28;3.65;;;;;;;;;;10375510;28;20472;-62
2022/01/18 15:50:35;;;;;;;4.80;3.83;;;;;;;;;;10372769;28;20030;-61
2022/01/18 15:55:36;;;;;;;7.07;3.83;;;;;;;;;;10371217;28;20436;-60
2022/01/18 16:00:38;;;;;;;5.00;3.47;;;;;;;;;;10374512;28;20455;-60
2022/01/18 16:05:39;;;;;;;5.60;4.10;;;;;;;;;;10374090;28;20355;-60
2022/01/18 16:10:41;;;;;;;5.20;3.80;;;;;;;;;;10372428;28;20022;-60
2022/01/18 16:15:41;;;;;;;7.32;4.05;;;;;;;;;;10373582;28;20547;-60
2022/01/18 16:20:42;;;;;;;6.13;3.83;;;;;;;;;;10373520;28;20117;-62
2022/01/18 16:25:45;;;;;;;8.47;3.70;;;;;;;;;;10372676;28;20471;-60
2022/01/18 16:30:47;;;;;;;5.47;3.90;;;;;;;;;;10371720;28;20470;-65
2022/01/18 16:35:48;;;;;;;5.55;3.90;;;;;;;;;;10372231;28;20053;-59
2022/01/18 16:40:48;;;;;;;3.92;3.45;;;;;;;;;;10370814;28;20053;-64
2022/01/18 16:45:49;;;;;;;5.35;3.85;;;;;;;;;;10372202;28;20066;-60
2022/01/18 16:50:49;;;;;;;6.63;4.60;;;;;;;;;;10372057;28;20072;-60
2022/01/18 16:55:51;;;;;;;10.13;3.85;;;;;;;;;;10368493;28;20444;-61
2022/01/18 17:00:52;;;;;;;8.00;3.80;;;;;;;;;;10368237;28;20052;-61
2022/01/18 17:05:52;;;;;;;8.90;4.07;;;;;;;;;;10371595;28;20030;-60
2022/01/18 17:10:52;;;;;;;5.63;3.97;;;;;;;;;;10371528;28;20026;-61
2022/01/18 17:15:53;;;;;;;7.17;4.00;;;;;;;;;;10371181;28;20479;-61
2022/01/18 17:20:53;;;;;;;7.23;4.00;;;;;;;;;;10370964;28;20420;-61
2022/01/18 17:25:53;;;;;;;7.13;3.60;;;;;;;;;;10371092;28;20071;-60
2022/01/18 17:30:54;;;;;;;4.32;3.80;;;;;;;;;;10370224;28;20427;-61
2022/01/18 17:35:54;;;;;;;10.87;4.27;;;;;;;;;;10370336;28;20359;-60
2022/01/18 17:40:57;;;;;;;8.45;4.10;;;;;;;;;;10370006;28;20045;-61
2022/01/18 17:45:58;;;;;;;10.65;3.95;;;;;;;;;;10370451;28;20030;-62
2022/01/18 17:50:58;;;;;;;11.90;5.15;;;;;;;;;;10369999;28;20030;-61
2022/01/18 17:55:59;;;;;;;9.55;4.47;;;;;;;;;;10370045;28;20040;-62
2022/01/18 18:00:59;;;;;;;8.43;4.97;;;;;;;;;;10366460;28;20148;-62
2022/01/18 18:06:01;;;;;;;7.07;4.90;;;;;;;;;;10366970;28;20029;-61
2022/01/18 18:11:01;;;;;;;6.80;4.90;;;;;;;;;;10369344;28;20486;-62
2022/01/18 18:16:02;;;;;;;10.05;5.35;;;;;;;;;;10372476;28;20045;-61
2022/01/18 18:21:02;;;;;;;6.78;4.45;;;;;;;;;;10369660;28;20477;-59
2022/01/18 18:26:03;;;;;;;6.67;4.90;;;;;;;;;;10369503;28;20669;-62
2022/01/18 18:31:05;;;;;;;11.00;4.93;;;;;;;;;;10369062;28;20440;-61
2022/01/18 18:36:06;;;;;;;7.75;5.53;;;;;;;;;;10369087;28;20100;-61
2022/01/18 18:41:08;;;;;;;7.55;4.72;;;;;;;;;;10367325;28;20474;-61
2022/01/18 18:46:09;;;;;;;12.07;5.60;;;;;;;;;;10368310;28;20496;-61
2022/01/18 18:51:09;;;;;;;11.02;6.10;;;;;;;;;;10367585;28;20042;-60
2022/01/18 18:56:09;;;;;;;9.60;5.40;;;;;;;;;;10368714;28;20049;-60
2022/01/18 19:01:27;;;;;;;16.70;6.93;;;;;;;;;;10367960;28;20526;-62
2022/01/18 19:06:27;;;;;;;17.73;7.88;;;;;;;;;;10364830;28;20022;-63
2022/01/18 19:11:28;;;;;;;18.43;7.53;;;;;;;;;;10364426;28;20025;-60
2022/01/18 19:16:34;;;;;;;16.17;7.90;;;;;;;;;;10367676;28;20542;-63
2022/01/18 19:21:37;;;;;;;17.40;7.68;;;;;;;;;;10367944;28;20042;-63
2022/01/18 19:26:41;;;;;;;29.77;9.20;;;;;;;;;;10367038;28;20052;-62
2022/01/18 19:31:44;;;;;;;25.80;8.68;;;;;;;;;;10367126;28;20096;-62
2022/01/18 19:36:46;;;;;;;27.48;8.15;;;;;;;;;;10367094;28;20109;-62
2022/01/18 19:41:51;;;;;;;23.55;8.85;;;;;;;;;;10367293;28;20034;-63
2022/01/18 19:46:51;;;;;;;19.00;7.32;;;;;;;;;;10367636;28;20030;-63
2022/01/18 19:51:52;;;;;;;23.67;8.13;;;;;;;;;;10367133;28;20491;-62
2022/01/18 19:56:52;;;;;;;23.00;7.97;;;;;;;;;;10363972;28;20451;-62
2022/01/18 20:01:52;;;;;;;14.67;7.43;;;;;;;;;;10373436;28;20022;-63
2022/01/18 20:06:53;;;;;;;23.47;8.27;;;;;;;;;;10374221;28;20034;-63
2022/01/18 20:11:53;;;;;;;23.03;7.40;;;;;;;;;;10366995;28;20021;-63
2022/01/18 20:17:03;;;;;;;15.10;7.40;;;;;;;;;;10373697;28;20583;-63
2022/01/18 20:22:05;;;;;;;14.30;7.65;;;;;;;;;;10374300;28;20113;-62
2022/01/18 20:27:18;;;;;;;17.65;8.25;;;;;;;;;;10373322;28;20395;-63
2022/01/18 20:32:18;;;;;;;20.27;8.55;;;;;;;;;;10373959;28;20026;-63
2022/01/18 20:37:19;;;;;;;18.23;8.82;;;;;;;;;;10373362;28;20022;-63
2022/01/18 20:47:39;;;;;;;18.95;9.07;;;;;;;;;;10371876;28;20069;-63
2022/01/18 20:52:40;;;;;;;18.45;9.27;;;;;;;;;;10370860;28;20033;-63
2022/01/18 20:57:40;;;;;;;14.27;8.63;;;;;;;;;;10367077;28;20023;-63
2022/01/18 21:02:43;;;;;;;19.00;9.63;;;;;;;;;;10369246;28;20807;-62
2022/01/18 21:07:43;;;;;;;23.38;9.98;;;;;;;;;;10371106;28;20022;-63
2022/01/18 21:12:44;;;;;;;25.60;10.45;;;;;;;;;;10370115;28;20026;-63
2022/01/18 21:17:48;;;;;;;18.90;9.82;;;;;;;;;;10368313;28;20046;-63
2022/01/18 21:22:49;;;;;;;22.98;10.23;;;;;;;;;;10371352;28;20032;-61
2022/01/18 21:27:51;;;;;;;20.77;10.23;;;;;;;;;;10371398;28;20036;-63
2022/01/18 21:32:51;;;;;;;16.42;9.52;;;;;;;;;;10370326;28;20474;-62
2022/01/18 21:37:52;;;;;;;16.70;9.43;;;;;;;;;;10368866;28;20084;-62
2022/01/18 21:42:52;;;;;;;16.23;10.02;;;;;;;;;;10370453;28;20109;-63
2022/01/18 21:47:53;;;;;;;16.40;9.85;;;;;;;;;;10369001;28;20026;-62
2022/01/18 21:52:54;;;;;;;17.45;11.00;;;;;;;;;;10370533;28;20022;-63
2022/01/18 21:57:54;;;;;;;19.08;10.55;;;;;;;;;;10370077;28;20030;-63
2022/01/18 22:02:55;;;;;;;19.48;10.85;;;;;;;;;;10368488;28;20068;-63
2022/01/18 22:07:56;;;;;;;16.25;10.63;;;;;;;;;;10367985;28;20026;-63
2022/01/18 22:12:59;;;;;;;15.38;10.15;;;;;;;;;;10368898;28;20037;-63
2022/01/18 22:17:59;;;;;;;20.60;10.93;;;;;;;;;;10366035;28;20056;-64
2022/01/18 22:23:01;;;;;;;17.33;10.70;;;;;;;;;;10364658;28;20036;-62
2022/01/18 22:28:02;;;;;;;18.38;11.27;;;;;;;;;;10368838;28;20546;-61
2022/01/18 22:33:03;;;;;;;20.10;10.68;;;;;;;;;;10368721;28;20041;-63
2022/01/18 22:38:04;;;;;;;19.80;11.95;;;;;;;;;;10368160;28;20030;-61
2022/01/18 22:43:04;;;;;;;28.50;11.38;;;;;;;;;;10367995;28;20034;-60
2022/01/18 22:48:06;;;;;;;27.47;12.10;;;;;;;;;;10366966;28;20134;-61
2022/01/18 22:53:06;;;;;;;20.35;10.73;;;;;;;;;;10368184;28;20447;-60
2022/01/18 22:58:07;;;;;;;19.60;10.50;;;;;;;;;;10368442;28;20030;-60
2022/01/18 23:03:08;;;;;;;29.73;11.40;;;;;;;;;;10366186;28;20092;-60
2022/01/18 23:08:08;;;;;;;25.17;11.10;;;;;;;;;;10366913;28;20110;-60
2022/01/18 23:13:09;;;;;;;18.30;11.20;;;;;;;;;;10366028;28;20029;-61
2022/01/18 23:18:09;;;;;;;19.17;10.13;;;;;;;;;;10366400;28;20046;-62
2022/01/18 23:23:10;;;;;;;21.30;10.32;;;;;;;;;;10367276;28;20034;-61
2022/01/18 23:28:10;;;;;;;17.33;9.53;;;;;;;;;;10367239;28;20037;-62
2022/01/18 23:33:10;;;;;;;15.25;9.57;;;;;;;;;;10367471;28;20438;-61
2022/01/18 23:38:22;;;;;;;17.35;10.10;;;;;;;;;;10375636;28;20026;-61
2022/01/18 23:43:23;;;;;;;16.15;9.73;;;;;;;;;;10372962;28;20022;-61
2022/01/18 23:48:24;;;;;;;19.27;9.90;;;;;;;;;;10373527;28;20038;-61
2022/01/18 23:53:24;;;;;;;14.98;9.35;;;;;;;;;;10371730;28;20448;-61
2022/01/18 23:58:25;;;;;;;18.63;9.73;;;;;;;;;;10374798;28;20120;-61
